Time,TemperatureF,DewpointF,PressureIn,WindDirection,WindDirectionDegrees,WindSpeedMPH,WindSpeedGustMPH,Humidity,HourlyPrecipIn,Conditions,Clouds,dailyrainin,SoftwareType,DateUTC
2013-09-09 00:06:00,70.2,51.0,29.62,NE,55,0.0,0.0,51,0.00,,,0.00,weatherlink.com 1.10,2013-09-09 06:06:00,
2013-09-09 00:21:00,70.4,51.0,29.61,North,11,0.0,0.0,50,0.00,,,0.00,weatherlink.com 1.10,2013-09-09 06:21:00,
2013-09-09 00:36:00,71.0,51.0,29.61,NNE,22,0.0,0.0,49,0.00,,,0.00,weatherlink.com 1.10,2013-09-09 06:36:00,
2013-09-09 00:51:00,71.3,51.0,29.61,NNE,22,0.0,1.0,49,0.00,,,0.00,weatherlink.com 1.10,2013-09-09 06:51:00,
2013-09-09 01:06:00,71.1,51.0,29.61,NNE,21,0.0,2.0,49,0.00,,,0.00,weatherlink.com 1.10,2013-09-09 07:06:00,
2013-09-09 01:21:00,70.6,50.0,29.61,NNW,345,0.0,1.0,49,0.00,,,0.00,weatherlink.com 1.10,2013-09-09 07:21:00,
2013-09-09 01:36:00,70.4,50.0,29.60,NNW,348,0.0,5.0,49,0.00,,,0.00,weatherlink.com 1.10,2013-09-09 07:36:00,
2013-09-09 01:51:00,70.6,50.0,29.60,NNW,331,0.0,4.0,48,0.00,,,0.00,weatherlink.com 1.10,2013-09-09 07:51:00,
2013-09-09 02:06:00,70.6,50.0,29.60,NNE,24,0.0,2.0,48,0.00,,,0.00,weatherlink.com 1.10,2013-09-09 08:06:00,
2013-09-09 02:21:00,70.5,50.0,29.60,NNW,336,0.0,1.0,49,0.00,,,0.00,weatherlink.com 1.10,2013-09-09 08:21:00,
2013-09-09 02:36:00,70.1,50.0,29.60,NNW,333,0.0,4.0,50,0.00,,,0.00,weatherlink.com 1.10,2013-09-09 08:36:00,
2013-09-09 02:51:00,69.4,50.0,29.60,NNW,334,0.0,2.0,51,0.00,,,0.00,weatherlink.com 1.10,2013-09-09 08:51:00,
2013-09-09 03:06:00,69.0,50.0,29.59,NNW,347,0.0,0.0,52,0.00,,,0.00,weatherlink.com 1.10,2013-09-09 09:06:00,
2013-09-09 03:21:00,68.5,50.0,29.60,NNW,347,0.0,0.0,52,0.00,,,0.00,weatherlink.com 1.10,2013-09-09 09:21:00,
2013-09-09 03:36:00,67.7,50.0,29.59,ENE,71,0.0,1.0,53,0.00,,,0.00,weatherlink.com 1.10,2013-09-09 09:36:00,
2013-09-09 03:51:00,67.3,50.0,29.59,ENE,71,0.0,0.0,54,0.00,,,0.00,weatherlink.com 1.10,2013-09-09 09:51:00,
2013-09-09 04:06:00,66.5,50.0,29.59,ENE,71,0.0,0.0,55,0.00,,,0.00,weatherlink.com 1.10,2013-09-09 10:06:00,
2013-09-09 04:21:00,65.8,49.0,29.59,ENE,71,0.0,0.0,56,0.00,,,0.00,weatherlink.com 1.10,2013-09-09 10:21:00,
2013-09-09 04:36:00,65.3,49.0,29.59,ENE,71,0.0,0.0,57,0.00,,,0.00,weatherlink.com 1.10,2013-09-09 10:36:00,
2013-09-09 04:51:00,64.8,49.0,29.58,ENE,71,0.0,0.0,58,0.00,,,0.00,weatherlink.com 1.10,2013-09-09 10:51:00,
2013-09-09 05:07:00,64.3,49.0,29.59,ESE,107,0.0,0.0,59,0.00,,,0.00,weatherlink.com 1.10,2013-09-09 11:07:00,
2013-09-09 05:22:00,63.7,50.0,29.59,ESE,107,0.0,0.0,62,0.00,,,0.00,weatherlink.com 1.10,2013-09-09 11:22:00,
2013-09-09 05:37:00,63.1,51.0,29.59,ESE,107,0.0,0.0,64,0.00,,,0.00,weatherlink.com 1.10,2013-09-09 11:37:00,
2013-09-09 05:52:00,62.8,50.0,29.59,ESE,107,0.0,0.0,63,0.00,,,0.00,weatherlink.com 1.10,2013-09-09 11:52:00,
2013-09-09 06:07:00,62.4,50.0,29.59,ESE,107,0.0,0.0,65,0.00,,,0.00,weatherlink.com 1.10,2013-09-09 12:07:00,
2013-09-09 06:22:00,61.9,49.0,29.59,ESE,107,0.0,0.0,64,0.00,,,0.00,weatherlink.com 1.10,2013-09-09 12:22:00,
2013-09-09 06:37:00,61.8,50.0,29.59,ESE,107,0.0,0.0,66,0.00,,,0.00,weatherlink.com 1.10,2013-09-09 12:37:00,
2013-09-09 06:52:00,61.5,50.0,29.60,ESE,107,0.0,0.0,65,0.00,,,0.00,weatherlink.com 1.10,2013-09-09 12:52:00,
2013-09-09 07:07:00,61.6,50.0,29.60,ESE,107,0.0,0.0,65,0.00,,,0.00,weatherlink.com 1.10,2013-09-09 13:07:00,
2013-09-09 07:22:00,62.7,50.0,29.60,ESE,107,0.0,0.0,63,0.00,,,0.00,weatherlink.com 1.10,2013-09-09 13:22:00,
2013-09-09 07:37:00,65.3,50.0,29.61,ESE,107,0.0,0.0,58,0.00,,,0.00,weatherlink.com 1.10,2013-09-09 13:37:00,
2013-09-09 07:52:00,67.1,51.0,29.61,ESE,107,0.0,0.0,56,0.00,,,0.00,weatherlink.com 1.10,2013-09-09 13:52:00,
2013-09-09 08:07:00,70.3,51.0,29.61,ESE,107,0.0,0.0,51,0.00,,,0.00,weatherlink.com 1.10,2013-09-09 14:07:00,
2013-09-09 08:22:00,71.6,51.0,29.61,ESE,107,0.0,0.0,48,0.00,,,0.00,weatherlink.com 1.10,2013-09-09 14:22:00,
2013-09-09 08:37:00,72.7,51.0,29.61,South,180,0.0,0.0,46,0.00,,,0.00,weatherlink.com 1.10,2013-09-09 14:37:00,
2013-09-09 08:52:00,73.7,50.0,29.61,South,177,3.0,6.0,44,0.00,,,0.00,weatherlink.com 1.10,2013-09-09 14:52:00,
2013-09-09 09:07:00,72.8,51.0,29.61,SSE,149,0.0,3.0,46,0.00,,,0.00,weatherlink.com 1.10,2013-09-09 15:07:00,
2013-09-09 09:22:00,73.9,51.0,29.61,SSE,161,1.0,3.0,44,0.00,,,0.00,weatherlink.com 1.10,2013-09-09 15:22:00,
2013-09-09 09:37:00,75.1,50.0,29.61,SSW,204,1.0,7.0,42,0.00,,,0.00,weatherlink.com 1.10,2013-09-09 15:37:00,
2013-09-09 10:07:00,75.4,51.0,29.61,SSW,202,2.0,7.0,43,0.00,,,0.00,weatherlink.com 1.10,2013-09-09 16:07:00,
2013-09-09 10:22:00,75.4,51.0,29.61,SSW,209,4.0,10.0,43,0.00,,,0.00,weatherlink.com 1.10,2013-09-09 16:22:00,
2013-09-09 10:37:00,77.4,52.0,29.61,South,185,7.0,7.0,42,0.00,,,0.00,weatherlink.com 1.10,2013-09-09 16:37:00,
2013-09-09 10:52:00,78.5,52.0,29.60,South,180,4.0,7.0,40,0.00,,,0.00,weatherlink.com 1.10,2013-09-09 16:52:00,
2013-09-09 11:07:00,79.0,52.0,29.60,South,180,2.0,7.0,39,0.00,,,0.00,weatherlink.com 1.10,2013-09-09 17:07:00,
2013-09-09 11:22:00,79.5,52.0,29.60,South,174,8.0,11.0,38,0.00,,,0.00,weatherlink.com 1.10,2013-09-09 17:22:00,
2013-09-09 11:37:00,79.6,52.0,29.60,SSW,197,3.0,6.0,39,0.00,,,0.00,weatherlink.com 1.10,2013-09-09 17:37:00,
2013-09-09 12:07:00,81.3,53.0,29.59,SSW,210,0.0,7.0,37,0.00,,,0.00,weatherlink.com 1.10,2013-09-09 18:07:00,
2013-09-09 12:22:00,82.1,52.0,29.57,WSW,244,0.0,7.0,35,0.00,,,0.00,weatherlink.com 1.10,2013-09-09 18:22:00,
2013-09-09 12:37:00,82.1,52.0,29.57,SSW,213,1.0,11.0,35,0.00,,,0.00,weatherlink.com 1.10,2013-09-09 18:37:00,
2013-09-09 12:52:00,82.7,52.0,29.56,SSW,200,5.0,7.0,35,0.00,,,0.00,weatherlink.com 1.10,2013-09-09 18:52:00,
2013-09-09 13:08:00,83.9,51.0,29.55,SSW,196,3.0,9.0,32,0.00,,,0.00,weatherlink.com 1.10,2013-09-09 19:08:00,
2013-09-09 13:23:00,83.8,51.0,29.54,South,171,4.0,12.0,32,0.00,,,0.00,weatherlink.com 1.10,2013-09-09 19:23:00,
2013-09-09 13:38:00,83.6,52.0,29.54,South,182,3.0,7.0,34,0.00,,,0.00,weatherlink.com 1.10,2013-09-09 19:38:00,
2013-09-09 13:53:00,84.2,50.0,29.53,SSE,160,2.0,8.0,31,0.00,,,0.00,weatherlink.com 1.10,2013-09-09 19:53:00,
2013-09-09 14:08:00,85.4,51.0,29.52,SW,219,0.0,8.0,31,0.00,,,0.00,weatherlink.com 1.10,2013-09-09 20:08:00,
2013-09-09 14:23:00,86.0,50.0,29.51,SSE,167,2.0,10.0,29,0.00,,,0.00,weatherlink.com 1.10,2013-09-09 20:23:00,
2013-09-09 14:38:00,85.1,49.0,29.50,SE,132,0.0,13.0,29,0.00,,,0.00,weatherlink.com 1.10,2013-09-09 20:38:00,
2013-09-09 14:53:00,86.7,49.0,29.49,East,83,3.0,6.0,27,0.00,,,0.00,weatherlink.com 1.10,2013-09-09 20:53:00,
2013-09-09 15:08:00,87.1,49.0,29.48,SE,140,2.0,10.0,27,0.00,,,0.00,weatherlink.com 1.10,2013-09-09 21:08:00,
2013-09-09 15:23:00,86.6,47.0,29.47,South,186,1.0,14.0,25,0.00,,,0.00,weatherlink.com 1.10,2013-09-09 21:23:00,
2013-09-09 15:38:00,88.2,48.0,29.47,South,184,10.0,12.0,25,0.00,,,0.00,weatherlink.com 1.10,2013-09-09 21:38:00,
2013-09-09 15:53:00,87.5,48.0,29.46,SW,215,2.0,14.0,25,0.00,,,0.00,weatherlink.com 1.10,2013-09-09 21:53:00,
2013-09-09 16:08:00,87.9,46.0,29.46,SW,220,2.0,12.0,23,0.00,,,0.00,weatherlink.com 1.10,2013-09-09 22:08:00,
2013-09-09 16:23:00,88.5,46.0,29.46,WSW,237,0.0,10.0,23,0.00,,,0.00,weatherlink.com 1.10,2013-09-09 22:23:00,
2013-09-09 16:38:00,87.6,45.0,29.46,South,174,3.0,9.0,23,0.00,,,0.00,weatherlink.com 1.10,2013-09-09 22:38:00,
2013-09-09 16:53:00,85.3,45.0,29.46,SSW,210,0.0,7.0,24,0.00,,,0.00,weatherlink.com 1.10,2013-09-09 22:53:00,
2013-09-09 17:08:00,85.4,44.0,29.45,South,177,0.0,6.0,23,0.00,,,0.00,weatherlink.com 1.10,2013-09-09 23:08:00,
2013-09-09 17:23:00,85.2,45.0,29.45,SSW,203,1.0,10.0,24,0.00,,,0.00,weatherlink.com 1.10,2013-09-09 23:23:00,
2013-09-09 17:38:00,82.6,48.0,29.45,WSW,239,1.0,11.0,30,0.00,,,0.00,weatherlink.com 1.10,2013-09-09 23:38:00,
2013-09-09 18:08:00,83.0,45.0,29.45,SSW,209,0.0,5.0,26,0.00,,,0.00,weatherlink.com 1.10,2013-09-10 00:08:00,
2013-09-09 18:23:00,82.7,44.0,29.45,SSW,213,2.0,7.0,26,0.00,,,0.00,weatherlink.com 1.10,2013-09-10 00:23:00,
2013-09-09 18:38:00,81.9,46.0,29.46,South,173,1.0,4.0,28,0.00,,,0.00,weatherlink.com 1.10,2013-09-10 00:38:00,
2013-09-09 18:53:00,82.0,46.0,29.46,WSW,246,0.0,5.0,28,0.00,,,0.00,weatherlink.com 1.10,2013-09-10 00:53:00,
2013-09-09 19:08:00,81.7,46.0,29.46,WSW,238,0.0,0.0,28,0.00,,,0.00,weatherlink.com 1.10,2013-09-10 01:08:00,
2013-09-09 19:23:00,81.3,42.0,29.47,SE,142,2.0,2.0,25,0.00,,,0.00,weatherlink.com 1.10,2013-09-10 01:23:00,
2013-09-09 19:38:00,81.2,43.0,29.48,SE,146,2.0,7.0,26,0.00,,,0.00,weatherlink.com 1.10,2013-09-10 01:38:00,
2013-09-09 19:53:00,81.1,43.0,29.49,SE,136,2.0,9.0,26,0.00,,,0.00,weatherlink.com 1.10,2013-09-10 01:53:00,
2013-09-09 20:08:00,80.6,44.0,29.49,ESE,107,3.0,8.0,27,0.00,,,0.00,weatherlink.com 1.10,2013-09-10 02:08:00,
2013-09-09 20:23:00,80.2,45.0,29.50,SSE,161,3.0,12.0,29,0.00,,,0.00,weatherlink.com 1.10,2013-09-10 02:23:00,
2013-09-09 20:38:00,79.0,47.0,29.52,SSE,165,2.0,8.0,33,0.00,,,0.00,weatherlink.com 1.10,2013-09-10 02:38:00,
2013-09-09 20:53:00,78.3,48.0,29.52,South,180,0.0,7.0,35,0.00,,,0.00,weatherlink.com 1.10,2013-09-10 02:53:00,
2013-09-09 21:08:00,77.4,49.0,29.53,South,181,0.0,6.0,37,0.00,,,0.00,weatherlink.com 1.10,2013-09-10 03:08:00,
2013-09-09 21:23:00,77.3,49.0,29.53,ESE,112,0.0,2.0,37,0.00,,,0.00,weatherlink.com 1.10,2013-09-10 03:23:00,
2013-09-09 21:38:00,77.3,49.0,29.54,SSE,150,0.0,1.0,37,0.00,,,0.00,weatherlink.com 1.10,2013-09-10 03:38:00,
2013-09-09 21:53:00,77.0,49.0,29.55,SSW,192,1.0,5.0,37,0.00,,,0.00,weatherlink.com 1.10,2013-09-10 03:53:00,
2013-09-09 22:08:00,75.9,50.0,29.56,SSW,192,1.0,9.0,41,0.00,,,0.00,weatherlink.com 1.10,2013-09-10 04:08:00,
2013-09-09 22:23:00,73.2,52.0,29.56,SSW,205,7.0,19.0,47,0.00,,,0.00,weatherlink.com 1.10,2013-09-10 04:23:00,
2013-09-09 22:38:00,71.4,52.0,29.57,South,171,10.0,18.0,51,0.00,,,0.00,weatherlink.com 1.10,2013-09-10 04:38:00,
2013-09-09 22:53:00,71.1,52.0,29.58,South,183,3.0,16.0,52,0.00,,,0.00,weatherlink.com 1.10,2013-09-10 04:53:00,
2013-09-09 23:08:00,70.5,52.0,29.59,South,171,5.0,12.0,53,0.00,,,0.00,weatherlink.com 1.10,2013-09-10 05:08:00,
2013-09-09 23:23:00,69.8,53.0,29.59,South,182,1.0,10.0,55,0.00,,,0.00,weatherlink.com 1.10,2013-09-10 05:23:00,
2013-09-09 23:38:00,69.4,53.0,29.59,SSW,193,2.0,10.0,57,0.00,,,0.00,weatherlink.com 1.10,2013-09-10 05:38:00,
2013-09-09 23:53:00,69.5,54.0,29.59,South,186,2.0,7.0,58,0.00,,,0.00,weatherlink.com 1.10,2013-09-10 05:53:00,